Hyderabad Weather



Hyderabad's Current Weather

Temprature 15.26o clear sky

clear sky

Rain: 0 %

Min Temprature15.26o
Max Temprature15.26o
Humidity25
Wind Speed4.83 m/h
Sun Rise07:13:41
Sun Set17:59:42
Current Time: 18-Jan-2021 06:08:23
Lat/Lon: 25.3924, 68.3737




Hyderabad's Geo Location



Hyderabad's Weather Forecast

Time Overall Temp Min Temp Max Temp Humidity Wind Speed Rain
18-Jan-2021 (Mon)
08:00:00 clear sky 15.450 15.160 15.450 25 5.4 m/h 0 %
11:00:00 clear sky 21.010 21.010 22.460 17 6.56 m/h 0 %
14:00:00 clear sky 26.830 26.830 27.590 12 6.73 m/h 0 %
17:00:00 clear sky 26.290 26.290 26.380 14 5.42 m/h 0 %
20:00:00 clear sky 20.130 20.130 20.130 20 4.65 m/h 0 %
23:00:00 clear sky 17.840 17.840 17.840 24 4.56 m/h 0 %
19-Jan-2021 (Tue)
02:00:00 clear sky 15.880 15.880 15.880 27 4.98 m/h 0 %
05:00:00 clear sky 14.470 14.470 14.470 30 4.79 m/h 0 %
08:00:00 clear sky 14.120 14.120 14.120 32 4.54 m/h 0 %
11:00:00 clear sky 21.910 21.910 21.910 21 4.24 m/h 0 %
14:00:00 clear sky 27.100 27.100 27.100 15 3.75 m/h 0 %
17:00:00 clear sky 26.810 26.810 26.810 15 2.73 m/h 0 %
20:00:00 clear sky 19.490 19.490 19.490 24 3.17 m/h 0 %
23:00:00 clear sky 16.380 16.380 16.380 29 2.12 m/h 0 %
20-Jan-2021 (Wed)
02:00:00 clear sky 15.960 15.960 15.960 29 2.51 m/h 0 %
05:00:00 clear sky 14.870 14.870 14.870 31 2.43 m/h 0 %
08:00:00 clear sky 15.930 15.930 15.930 29 2.47 m/h 0 %
11:00:00 clear sky 23.640 23.640 23.640 18 1.96 m/h 0 %
14:00:00 clear sky 27.780 27.780 27.780 14 0.33 m/h 0 %
17:00:00 clear sky 27.230 27.230 27.230 15 1.05 m/h 0 %
20:00:00 clear sky 18.570 18.570 18.570 27 0.59 m/h 0 %
23:00:00 clear sky 17.380 17.380 17.380 29 0.61 m/h 0 %
21-Jan-2021 (Thu)
02:00:00 clear sky 16.200 16.200 16.200 34 1.64 m/h 0 %
05:00:00 clear sky 15.640 15.640 15.640 56 1.73 m/h 0 %
08:00:00 clear sky 18.160 18.160 18.160 45 2.45 m/h 0 %
11:00:00 clear sky 26.850 26.850 26.850 22 3.93 m/h 0 %
14:00:00 clear sky 30.990 30.990 30.990 18 5.48 m/h 0 %
17:00:00 clear sky 29.560 29.560 29.560 26 7.17 m/h 0 %
20:00:00 clear sky 22.010 22.010 22.010 49 6.61 m/h 0 %
23:00:00 clear sky 19.160 19.160 19.160 75 7.07 m/h 0 %
22-Jan-2021 (Fri)
02:00:00 clear sky 18.260 18.260 18.260 80 6.31 m/h 0 %
05:00:00 clear sky 17.790 17.790 17.790 85 6.32 m/h 0 %
08:00:00 clear sky 18.720 18.720 18.720 72 5.37 m/h 0 %
11:00:00 clear sky 28.380 28.380 28.380 26 4.73 m/h 0 %
14:00:00 clear sky 32.440 32.440 32.440 14 3.51 m/h 0 %
17:00:00 clear sky 31.570 31.570 31.570 13 3.41 m/h 0 %
20:00:00 clear sky 23.280 23.280 23.280 21 3.29 m/h 0 %
23:00:00 clear sky 20.290 20.290 20.290 25 3.55 m/h 0 %
23-Jan-2021 (Sat)
02:00:00 clear sky 18.660 18.660 18.660 27 3.75 m/h 0 %
05:00:00 clear sky 16.770 16.770 16.770 29 3.85 m/h 0 %

Famous Cities (60)